首页
METAR-TAF:

METAR-TAF

机场 :

Peterborough, 安大略省, 加拿大

纬度: 44-14N, 经度: 078-22W, 海拔: 191米

当前天气观测

该预报发布于38分钟前的20:00 UTC
风速14节,风向西北,有时为23节阵风
温度 13°C
湿度 33%
气压 1012 hPa
能見度: 14.5公里
天空无云

METAR: CYPQ 022000Z AUTO 32014G23KT 9SM CLR 13/M03 A2989 RMK SLP128

时间: 16:38 (20:38 UTC)

预报

该预报发布于56分钟前的19:42 UTC
预报有效从02日的 20点(UTC)到 03日的 02点(UTC)
风速12节,风向西北,有时为22节阵风
能見度: 10公里
天空无云
成为
从 03日的 00点(UTC)到 03日的 02点(UTC)
多云层高于8000英尺

TAF: CYPQ 021942Z 0220/0302 31012G22KT P6SM SKC BECMG 0300/0302 BKN080 RMK FCST BASED ON AUTO OBS. NXT FCST WILL BE ISSUED AT 030945Z

超过4000个机场的气象观测和天气预报(METAR&TAF报告)。

可查询的气象台以黄色和红色小点在地图上表示。

将鼠标移到小点上方,可查看气象台名称。

然后点击查看天气观测和预报。

如需切换地图:点击带黑十字的绿色按钮放大地图;点击带横线的绿色按钮缩小地图;或者点击绿色箭头查看邻近地区的地图。


METAR-TAF: